createdAt,value
2019-06-20T05:40:21.022Z,97731.98
2019-06-20T05:45:21.897Z,97728.67
2019-06-20T05:50:22.767Z,97738.50
2019-06-20T05:55:23.740Z,97731.73
2019-06-20T06:00:24.920Z,97740.48
2019-06-20T06:05:25.814Z,97729.64
2019-06-20T06:10:26.903Z,97728.36
2019-06-20T06:15:27.780Z,97732.12
2019-06-20T06:20:28.658Z,97734.63
2019-06-20T06:25:29.535Z,97737.56
2019-06-20T06:30:30.811Z,97737.08
2019-06-20T06:35:31.702Z,97731.20
2019-06-20T06:40:32.774Z,97740.77
2019-06-20T06:45:33.860Z,97736.61
2019-06-20T06:50:35.020Z,97739.63
2019-06-20T06:55:36.011Z,97739.13
2019-06-20T07:00:36.891Z,97736.78
2019-06-20T07:05:37.800Z,97744.59
2019-06-20T07:10:38.727Z,97743.78
2019-06-20T07:15:39.618Z,97742.47
2019-06-20T07:20:40.494Z,97746.81
2019-06-20T07:25:41.466Z,97749.06
2019-06-20T07:30:42.347Z,97753.16
2019-06-20T07:35:43.228Z,97754.52
2019-06-20T07:40:44.132Z,97760.45
2019-06-20T07:46:01.157Z,97762.58
2019-06-20T07:50:47.803Z,97755.53
2019-06-20T07:55:48.679Z,97758.03
2019-06-20T08:00:49.576Z,97761.56
2019-06-20T08:05:50.498Z,97760.45
2019-06-20T08:10:57.788Z,97758.05
2019-06-20T08:15:59.156Z,97772.11
2019-06-20T08:21:00.650Z,97776.22
2019-06-20T08:26:02.550Z,97771.61
2019-06-20T08:31:04.814Z,97767.89
2019-06-20T08:36:06.713Z,97770.38
2019-06-20T08:41:07.991Z,97760.16
2019-06-20T08:46:10.374Z,97768.35
2019-06-20T08:51:14.820Z,97761.30
2019-06-20T08:56:15.845Z,97754.91
2019-06-20T09:01:16.722Z,97750.50
2019-06-20T09:06:17.593Z,97756.74
2019-06-20T09:11:18.463Z,97755.97
2019-06-20T09:16:24.566Z,97762.19
2019-06-20T09:21:22.227Z,97759.94
2019-06-20T09:26:23.084Z,97755.17
2019-06-20T09:31:23.955Z,97757.67
2019-06-20T09:36:24.947Z,97754.45
2019-06-20T09:41:25.835Z,97764.98
2019-06-20T09:46:26.710Z,97755.16
2019-06-20T09:51:27.698Z,97765.48
2019-06-20T09:56:28.577Z,97764.22
2019-06-20T10:01:32.660Z,97766.88
2019-06-20T10:06:34.242Z,97774.63
2019-06-20T10:11:35.528Z,97772.31
2019-06-20T10:16:45.280Z,97778.13
2019-06-20T10:21:39.283Z,97763.35
2019-06-20T10:26:40.369Z,97760.86
2019-06-20T10:31:41.633Z,97774.65
2019-06-20T10:36:44.818Z,97764.38
2019-06-20T10:41:46.806Z,97769.94
2019-06-20T10:46:49.199Z,97768.20
2019-06-20T10:51:50.169Z,97765.81
2019-06-20T10:56:51.137Z,97768.78
2019-06-20T11:01:52.131Z,97763.70
2019-06-20T11:06:53.002Z,97757.42
2019-06-20T11:11:53.964Z,97756.49
2019-06-20T11:16:54.848Z,97747.02
2019-06-20T11:21:55.737Z,97737.16
2019-06-20T11:26:56.591Z,97730.75
2019-06-20T11:31:57.763Z,97724.36
2019-06-20T11:36:58.621Z,97714.05
2019-06-20T11:42:01.721Z,97704.44
2019-06-20T11:47:02.715Z,97706.49
2019-06-20T11:52:03.689Z,97702.06
2019-06-20T11:57:04.684Z,97690.55
2019-06-20T12:02:05.581Z,97687.77
2019-06-20T12:07:06.850Z,97682.53
2019-06-20T12:12:07.726Z,97678.33
2019-06-20T12:17:08.966Z,97677.58
2019-06-20T12:22:10.027Z,97666.55
2019-06-20T12:27:10.866Z,97673.93
2019-06-20T12:32:11.784Z,97665.40
2019-06-20T12:37:14.668Z,97654.37
2019-06-20T12:42:15.589Z,97648.81
2019-06-20T12:47:16.457Z,97654.94
2019-06-20T12:52:17.350Z,97637.48
2019-06-20T12:57:18.225Z,97629.68
2019-06-20T13:02:19.100Z,97620.67
2019-06-20T13:07:20.006Z,97616.63
2019-06-20T13:12:20.874Z,97613.66
2019-06-20T13:17:21.754Z,97614.22
2019-06-20T13:22:22.762Z,97612.41
2019-06-20T13:27:23.636Z,97603.22
2019-06-20T13:32:24.495Z,97590.14
2019-06-20T13:37:25.348Z,97589.47
2019-06-20T13:42:28.006Z,97590.52
2019-06-20T13:47:28.985Z,97582.76
2019-06-20T13:52:29.858Z,97580.75
2019-06-20T13:57:30.740Z,97580.85
2019-06-20T14:02:31.616Z,97570.03
2019-06-20T14:07:32.594Z,97563.16
2019-06-20T14:12:33.495Z,97558.80
2019-06-20T14:17:43.604Z,97546.37
2019-06-20T14:22:49.407Z,97545.30
2019-06-20T14:27:51.709Z,97536.97
2019-06-20T14:32:53.981Z,97528.96
2019-06-20T14:37:55.663Z,97524.87
2019-06-20T14:42:58.629Z,97515.45
2019-06-20T14:48:00.267Z,97500.48
2019-06-20T14:53:02.883Z,97495.27
2019-06-20T14:58:04.460Z,97492.25
2019-06-20T15:03:07.127Z,97495.86
2019-06-20T15:08:08.115Z,97498.03
2019-06-20T15:13:08.997Z,97494.98
2019-06-20T15:18:09.869Z,97489.75
2019-06-20T15:23:10.735Z,97484.17
2019-06-20T15:28:11.637Z,97478.39
2019-06-20T15:33:12.532Z,97493.87
2019-06-20T15:38:13.405Z,97494.37
2019-06-20T15:43:14.310Z,97500.03
2019-06-20T15:48:15.198Z,97524.87
2019-06-20T15:53:16.065Z,97524.80
2019-06-20T15:58:16.940Z,97539.87
2019-06-20T16:03:17.813Z,97545.22
2019-06-20T16:08:22.108Z,97547.55
2019-06-20T16:13:23.879Z,97544.54
2019-06-20T16:18:38.356Z,97543.39
2019-06-20T16:23:40.131Z,97554.33
2019-06-20T16:28:46.169Z,97568.45
2019-06-20T16:39:06.134Z,97579.96
2019-06-20T16:44:07.042Z,97585.81
2019-06-20T16:49:07.903Z,97609.39
2019-06-20T16:54:08.782Z,97619.55
2019-06-20T16:59:09.760Z,97635.63
2019-06-20T17:04:10.620Z,97654.36
2019-06-20T17:09:11.635Z,97690.30
2019-06-20T17:14:12.692Z,97756.04
2019-06-20T17:19:13.559Z,97855.65
2019-06-20T17:24:14.428Z,97887.65
2019-06-20T17:29:15.309Z,97893.27
2019-06-20T17:34:16.273Z,97885.92
2019-06-20T17:39:17.248Z,97877.46
2019-06-20T17:44:18.240Z,97872.36
2019-06-20T17:49:19.230Z,97877.21
2019-06-20T17:54:20.095Z,97867.87
2019-06-20T17:59:22.843Z,97824.14
2019-06-20T18:04:26.640Z,97843.41
2019-06-20T18:09:26.527Z,97904.34
2019-06-20T18:14:27.571Z,97920.22
2019-06-20T18:19:28.480Z,97915.63
2019-06-20T18:24:29.353Z,97906.98
2019-06-20T18:29:30.405Z,97899.28
2019-06-20T18:34:31.275Z,97912.69
2019-06-20T18:39:32.676Z,97956.64
2019-06-20T18:44:33.623Z,97971.70
2019-06-20T18:49:34.509Z,97967.22
2019-06-20T18:54:35.369Z,97959.13
2019-06-20T18:59:36.621Z,97949.37
2019-06-20T19:04:47.984Z,97949.08
2019-06-20T19:09:40.663Z,97961.77
2019-06-20T19:14:41.536Z,97973.91
2019-06-20T19:19:42.449Z,97994.05
2019-06-20T19:24:43.424Z,98018.67
2019-06-20T19:29:44.284Z,98049.12
2019-06-20T19:35:00.620Z,98069.45
2019-06-20T19:39:48.055Z,98082.48
2019-06-20T19:44:49.006Z,98085.75
2019-06-20T19:49:49.858Z,98088.52
2019-06-20T19:54:50.858Z,98086.75
2019-06-20T19:59:52.148Z,98100.86
2019-06-20T20:04:53.007Z,98104.59
2019-06-20T20:09:53.882Z,98104.53
2019-06-20T20:14:54.992Z,98109.63
